AirNav   Phillips 66 Aviation Fuel
 
 264 users online  

86OR Amber Glen Business Center HP Heliport
Beaverton, Oregon, USA

GOING TO BEAVERTON?


FAA INFORMATION EFFECTIVE 03 JANUARY 2019

Location

FAA Identifier: 86OR
Lat/Long: 45-31-49.4200N / 122-52-59.3640W
45-31.823667N / 122-52.989400W
45.5303944 / -122.8831567
(estimated)
Elevation: 200 ft. / 61 m (estimated)
Variation: 19E (1985)
From city: 3 miles SE of BEAVERTON, OR
Time zone: UTC -8 (UTC -7 during Daylight Saving Time)
Zip code: 97006

Heliport Operations

Heliport use: Private use. Permission required prior to landing
Activation date: 07/1987
Control tower: no
ARTCC: SEATTLE CENTER
FSS: MC MINNVILLE FLIGHT SERVICE STATION
Attendance: UNATNDD
Wind indicator: yes
Segmented circle: yes

Heliport Communications

WX ASOS at HIO (2.9 nm W): PHONE 503-640-2984
WX ASOS at VUO (11 nm NE): 135.125 (360-696-1280)
WX ASOS at PDX (13 nm E): PHONE (503) 493-7687
WX ASOS at SPB (14 nm N): 135.875 (503-543-6401)
WX ASOS at UAO (18 nm S): PHONE 503-678-3011

Nearby radio navigation aids

VOR radial/distance  VOR name  Freq  Var
UBGr360/11.4NEWBERG VOR/DME117.4021E
BTGr202/17.9BATTLE GROUND VORTAC116.6021E

 
NDB name  Hdg/Dist  Freq  Var  ID
BANKS115/9.135616EPND .--. -. -..
KELSO161/37.525617ELSO .-.. ... ---

Heliport Services

Runway Information

Helipad H1

Dimensions: 25 x 25 ft. / 8 x 8 m
Surface: concrete
Traffic pattern: leftleft

Heliport Ownership and Management from official FAA records

Ownership: Privately-owned
Owner: BIRTCHER PROPERTIES
1600 NW COMPTON DR
BEAVERTON, OR 97006
Phone 503-690-1006
SCIENCE PARK.
Manager: OREGON GRADUATE CENTER
1600 NW COMPTON DR
BEAVERTON, OR 97006
Phone 503-690-1006
SCIENCE PARK.

Additional Remarks

FOR CD CTC PORTLAND APCH AT 503-493-7545.

Instrument Procedures

There are no published instrument procedures at 86OR.

Some nearby airports with instrument procedures:

KHIO - Portland-Hillsboro Airport (3 nm W)
KVUO - Pearson Field Airport (11 nm NE)
KPDX - Portland International Airport (13 nm E)
KSPB - Scappoose Industrial Airpark (14 nm N)
KUAO - Aurora State Airport (18 nm S)
 
Loc | Ops | Rwys | IFR | FBO | Links
Com | Nav | Svcs | Stats | Notes
Area around 86OR (Amber Glen Business Center HP Heliport)
 
Road maps at: MapQuest Bing Google
 
Aerial photo
No photo
 
Sectional chart

 
Airport distance calculator
Flying to Amber Glen Business Center HP Heliport? Find the distance to fly.

From to 86OR

Sunrise and sunset
Times for 21-Jan-2019
 Local
(UTC-8)
 Zulu
(UTC)
Morning civil twilight07:1215:12
Sunrise07:4515:45
Sunset17:0101:01
Evening civil twilight17:3401:34

Current date and time
Zulu (UTC)  21-Jan-2019 08:44:37
Local (UTC-8)  21-Jan-2019 00:44:37
 
METAR
KHIO 
3nm NW 
210830Z AUTO 00000KT 1/4SM R13R/1000V1200FT FG VV001 03/03 A3004 RMK AO2 T00280028
KVUO 
11nm NE 
210837Z AUTO 00000KT 4SM BR FEW009 FEW014 BKN024 03/02 A3005 RMK AO2 T00330022
KPDX 
12nm E 
210753Z 29003KT 10SM BKN011 OVC024 06/04 A3004 RMK AO2 CIG 008V013 SLP170 T00560039 400720050 $
KSPB 
14nm N 
210839Z AUTO 00000KT 3/4SM BR VV001 02/01 A3005 RMK AO2 T00170006
KUAO 
18nm S 
210823Z AUTO 00000KT 2SM BR SCT003 BKN019 OVC030 05/04 RMK AO2 T00500044 $
KTTD 
20nm E 
210804Z AUTO 00000KT 10SM OVC009 05/04 A3003 RMK AO2 CIG 006V013 T00500039
TAF
KHIO 
3nm NW 
210800Z 2108/2206 00000KT 1/4SM FG VV002 FM211400 VRB03KT P6SM OVC007 FM211900 23004KT P6SM SCT010 BKN015
KPDX 
12nm E 
210523Z 2106/2206 VRB03KT P6SM VCSH SCT005 OVC018 FM211100 00000KT 5SM BR VCSH BKN008 OVC015 FM211600 VRB03KT P6SM FEW008 BKN025 FM212100 27004KT P6SM SCT030
KUAO 
18nm S 
210523Z 2106/2206 01009KT 3SM BR VCSH SCT002 BKN100 FM210900 00000KT 3SM BR FEW001 BKN003 OVC040 FM211800 VRB02KT 4SM BR BKN007 OVC035 FM211900 VRB03KT P6SM SCT015 BKN035 FM212200 23004KT P6SM SCT015 SCT035
KTTD 
20nm E 
210813Z 2108/2206 VRB03KT P6SM BKN009 OVC025 FM211000 VRB02KT 2SM BR BKN007 OVC015 FM211600 VRB03KT P6SM FEW008 BKN025 FM212200 VRB03KT P6SM BKN035
NOTAMs
Click for the latest NOTAMs
NOTAMs are issued by the DoD/FAA and will open in a separate window not controlled by AirNav.

 

 
 

Would you like to see your business listed on this page?

 If your business provides an interesting product or service to pilots, flight crews, aircraft, or users of the Amber Glen Business Center HP Heliport, you should consider listing it here.  To start the listing process, click on the button below
 
Add a business
 

Other Pages about Amber Glen Business Center HP Heliport

Update a link
 
Copyright © AirNav, LLC. All rights reserved. Privacy Policy  Contact